sensor_id;sensor_type;location;lat;lon;timestamp;P1;durP1;ratioP1;P2;durP2;ratioP2
3991;SDS011;2010;48.194;16.394;2024-03-23T00:54:10;7.23;;;6.43;;
3991;SDS011;2010;48.194;16.394;2024-03-23T00:57:19;8.30;;;6.17;;
3991;SDS011;2010;48.194;16.394;2024-03-23T01:00:36;8.57;;;6.23;;
3991;SDS011;2010;48.194;16.394;2024-03-23T01:03:43;7.63;;;6.63;;
3991;SDS011;2010;48.194;16.394;2024-03-23T01:06:53;7.47;;;6.03;;
3991;SDS011;2010;48.194;16.394;2024-03-23T01:10:04;7.07;;;5.93;;
3991;SDS011;2010;48.194;16.394;2024-03-23T01:13:12;8.60;;;7.33;;
3991;SDS011;2010;48.194;16.394;2024-03-23T01:16:21;10.13;;;7.73;;
3991;SDS011;2010;48.194;16.394;2024-03-23T01:19:30;7.60;;;6.87;;
3991;SDS011;2010;48.194;16.394;2024-03-23T01:22:49;7.30;;;6.60;;
3991;SDS011;2010;48.194;16.394;2024-03-23T01:26:03;9.37;;;7.53;;
3991;SDS011;2010;48.194;16.394;2024-03-23T01:29:15;8.03;;;7.23;;
3991;SDS011;2010;48.194;16.394;2024-03-23T01:32:22;8.63;;;7.10;;
3991;SDS011;2010;48.194;16.394;2024-03-23T01:35:31;11.63;;;7.30;;
3991;SDS011;2010;48.194;16.394;2024-03-23T01:38:39;7.90;;;7.10;;
3991;SDS011;2010;48.194;16.394;2024-03-23T01:42:00;10.87;;;8.50;;
3991;SDS011;2010;48.194;16.394;2024-03-23T01:45:08;10.60;;;8.60;;
3991;SDS011;2010;48.194;16.394;2024-03-23T01:48:17;11.40;;;8.90;;
3991;SDS011;2010;48.194;16.394;2024-03-23T01:51:27;11.40;;;9.40;;
3991;SDS011;2010;48.194;16.394;2024-03-23T01:54:38;11.20;;;8.77;;
3991;SDS011;2010;48.194;16.394;2024-03-23T01:58:03;10.40;;;8.40;;
3991;SDS011;2010;48.194;16.394;2024-03-23T02:01:12;11.30;;;9.70;;
3991;SDS011;2010;48.194;16.394;2024-03-23T02:04:30;11.10;;;9.20;;
3991;SDS011;2010;48.194;16.394;2024-03-23T02:07:37;10.03;;;9.03;;
3991;SDS011;2010;48.194;16.394;2024-03-23T02:10:49;10.60;;;9.50;;
3991;SDS011;2010;48.194;16.394;2024-03-23T02:14:01;10.87;;;9.57;;
3991;SDS011;2010;48.194;16.394;2024-03-23T02:17:21;13.40;;;10.00;;
3991;SDS011;2010;48.194;16.394;2024-03-23T02:20:33;13.77;;;9.30;;
3991;SDS011;2010;48.194;16.394;2024-03-23T02:23:58;15.93;;;10.93;;
3991;SDS011;2010;48.194;16.394;2024-03-23T02:27:07;14.30;;;10.53;;
3991;SDS011;2010;48.194;16.394;2024-03-23T02:30:18;13.83;;;9.17;;
3991;SDS011;2010;48.194;16.394;2024-03-23T02:33:27;14.03;;;9.80;;
3991;SDS011;2010;48.194;16.394;2024-03-23T02:36:36;11.87;;;9.70;;
3991;SDS011;2010;48.194;16.394;2024-03-23T02:39:47;10.63;;;9.50;;
3991;SDS011;2010;48.194;16.394;2024-03-23T02:42:55;11.70;;;9.97;;
3991;SDS011;2010;48.194;16.394;2024-03-23T02:46:04;12.57;;;10.27;;
3991;SDS011;2010;48.194;16.394;2024-03-23T02:49:13;13.57;;;9.70;;
3991;SDS011;2010;48.194;16.394;2024-03-23T02:52:22;11.00;;;8.97;;
3991;SDS011;2010;48.194;16.394;2024-03-23T02:55:35;13.77;;;9.80;;
3991;SDS011;2010;48.194;16.394;2024-03-23T02:58:45;10.63;;;9.23;;
3991;SDS011;2010;48.194;16.394;2024-03-23T03:01:52;11.33;;;10.23;;
3991;SDS011;2010;48.194;16.394;2024-03-23T03:05:15;13.37;;;8.97;;
3991;SDS011;2010;48.194;16.394;2024-03-23T03:08:23;13.80;;;9.50;;
3991;SDS011;2010;48.194;16.394;2024-03-23T03:11:33;12.27;;;8.93;;
3991;SDS011;2010;48.194;16.394;2024-03-23T03:14:44;10.57;;;8.53;;
3991;SDS011;2010;48.194;16.394;2024-03-23T03:17:53;9.50;;;8.50;;
3991;SDS011;2010;48.194;16.394;2024-03-23T03:21:04;12.13;;;8.30;;
3991;SDS011;2010;48.194;16.394;2024-03-23T03:24:15;9.33;;;7.90;;
3991;SDS011;2010;48.194;16.394;2024-03-23T03:27:32;10.90;;;8.53;;
3991;SDS011;2010;48.194;16.394;2024-03-23T03:30:43;10.40;;;8.33;;
3991;SDS011;2010;48.194;16.394;2024-03-23T03:33:53;11.37;;;8.47;;
3991;SDS011;2010;48.194;16.394;2024-03-23T03:37:10;9.63;;;7.23;;
3991;SDS011;2010;48.194;16.394;2024-03-23T03:40:22;9.00;;;7.37;;
3991;SDS011;2010;48.194;16.394;2024-03-23T03:43:42;11.67;;;8.67;;
3991;SDS011;2010;48.194;16.394;2024-03-23T03:46:52;13.07;;;8.10;;
3991;SDS011;2010;48.194;16.394;2024-03-23T03:50:00;10.30;;;7.57;;
3991;SDS011;2010;48.194;16.394;2024-03-23T03:53:12;9.37;;;8.37;;
3991;SDS011;2010;48.194;16.394;2024-03-23T03:56:20;8.57;;;7.60;;
3991;SDS011;2010;48.194;16.394;2024-03-23T03:59:47;10.97;;;7.17;;
3991;SDS011;2010;48.194;16.394;2024-03-23T04:02:56;11.83;;;7.17;;
3991;SDS011;2010;48.194;16.394;2024-03-23T04:06:07;7.80;;;6.97;;
3991;SDS011;2010;48.194;16.394;2024-03-23T04:09:14;9.00;;;7.13;;
3991;SDS011;2010;48.194;16.394;2024-03-23T04:12:23;9.60;;;6.30;;
3991;SDS011;2010;48.194;16.394;2024-03-23T04:15:53;8.87;;;7.20;;
3991;SDS011;2010;48.194;16.394;2024-03-23T04:19:01;8.33;;;7.47;;
3991;SDS011;2010;48.194;16.394;2024-03-23T04:22:14;7.27;;;6.50;;
3991;SDS011;2010;48.194;16.394;2024-03-23T04:25:25;12.37;;;7.27;;
3991;SDS011;2010;48.194;16.394;2024-03-23T04:28:31;7.80;;;6.57;;
3991;SDS011;2010;48.194;16.394;2024-03-23T04:31:44;6.60;;;6.00;;
3991;SDS011;2010;48.194;16.394;2024-03-23T04:34:53;11.27;;;6.10;;
3991;SDS011;2010;48.194;16.394;2024-03-23T04:38:04;10.93;;;6.30;;
3991;SDS011;2010;48.194;16.394;2024-03-23T04:41:17;10.00;;;5.77;;
3991;SDS011;2010;48.194;16.394;2024-03-23T04:44:28;8.20;;;6.27;;
3991;SDS011;2010;48.194;16.394;2024-03-23T04:47:41;9.37;;;6.50;;
3991;SDS011;2010;48.194;16.394;2024-03-23T04:50:57;7.57;;;6.27;;
3991;SDS011;2010;48.194;16.394;2024-03-23T04:54:12;5.87;;;5.37;;
3991;SDS011;2010;48.194;16.394;2024-03-23T04:57:24;13.10;;;6.23;;
3991;SDS011;2010;48.194;16.394;2024-03-23T05:00:38;8.40;;;5.50;;
3991;SDS011;2010;48.194;16.394;2024-03-23T05:03:52;6.60;;;6.10;;
3991;SDS011;2010;48.194;16.394;2024-03-23T05:07:04;7.07;;;5.90;;
3991;SDS011;2010;48.194;16.394;2024-03-23T05:10:14;10.63;;;5.50;;
3991;SDS011;2010;48.194;16.394;2024-03-23T05:13:25;20.97;;;6.90;;
3991;SDS011;2010;48.194;16.394;2024-03-23T05:16:33;15.53;;;7.50;;
3991;SDS011;2010;48.194;16.394;2024-03-23T05:19:45;10.67;;;7.07;;
3991;SDS011;2010;48.194;16.394;2024-03-23T05:22:54;10.60;;;7.97;;
3991;SDS011;2010;48.194;16.394;2024-03-23T05:26:14;15.10;;;8.03;;
3991;SDS011;2010;48.194;16.394;2024-03-23T05:29:22;16.83;;;9.13;;
3991;SDS011;2010;48.194;16.394;2024-03-23T05:32:30;17.03;;;8.47;;
3991;SDS011;2010;48.194;16.394;2024-03-23T05:35:40;14.03;;;8.37;;
3991;SDS011;2010;48.194;16.394;2024-03-23T05:38:48;9.80;;;6.87;;
3991;SDS011;2010;48.194;16.394;2024-03-23T05:41:57;7.27;;;6.40;;
3991;SDS011;2010;48.194;16.394;2024-03-23T05:45:05;10.40;;;7.00;;
3991;SDS011;2010;48.194;16.394;2024-03-23T05:48:19;9.70;;;6.00;;
3991;SDS011;2010;48.194;16.394;2024-03-23T05:51:32;7.63;;;6.20;;
3991;SDS011;2010;48.194;16.394;2024-03-23T05:54:42;6.60;;;5.90;;
3991;SDS011;2010;48.194;16.394;2024-03-23T05:57:49;8.13;;;6.37;;
3991;SDS011;2010;48.194;16.394;2024-03-23T06:00:58;7.57;;;6.40;;
3991;SDS011;2010;48.194;16.394;2024-03-23T06:04:07;10.77;;;8.30;;
3991;SDS011;2010;48.194;16.394;2024-03-23T06:07:17;12.67;;;9.47;;
3991;SDS011;2010;48.194;16.394;2024-03-23T06:10:25;13.13;;;10.07;;
3991;SDS011;2010;48.194;16.394;2024-03-23T06:13:34;12.40;;;9.17;;
3991;SDS011;2010;48.194;16.394;2024-03-23T06:16:42;19.13;;;10.97;;
3991;SDS011;2010;48.194;16.394;2024-03-23T06:19:50;12.63;;;10.53;;
3991;SDS011;2010;48.194;16.394;2024-03-23T06:23:04;11.73;;;10.20;;
3991;SDS011;2010;48.194;16.394;2024-03-23T06:26:13;12.83;;;10.10;;
3991;SDS011;2010;48.194;16.394;2024-03-23T06:29:22;11.13;;;8.10;;
3991;SDS011;2010;48.194;16.394;2024-03-23T06:32:31;9.10;;;8.13;;
3991;SDS011;2010;48.194;16.394;2024-03-23T06:35:38;8.87;;;7.97;;
3991;SDS011;2010;48.194;16.394;2024-03-23T06:38:54;8.63;;;7.50;;
3991;SDS011;2010;48.194;16.394;2024-03-23T06:42:06;9.57;;;7.03;;
3991;SDS011;2010;48.194;16.394;2024-03-23T06:45:16;8.13;;;7.13;;
3991;SDS011;2010;48.194;16.394;2024-03-23T06:48:29;9.00;;;7.27;;
3991;SDS011;2010;48.194;16.394;2024-03-23T06:51:38;7.70;;;6.77;;
3991;SDS011;2010;48.194;16.394;2024-03-23T06:55:01;7.70;;;6.50;;
3991;SDS011;2010;48.194;16.394;2024-03-23T06:58:14;8.57;;;6.73;;
3991;SDS011;2010;48.194;16.394;2024-03-23T07:01:21;9.10;;;7.73;;
3991;SDS011;2010;48.194;16.394;2024-03-23T07:04:32;12.27;;;6.57;;
3991;SDS011;2010;48.194;16.394;2024-03-23T07:07:41;6.73;;;6.13;;
3991;SDS011;2010;48.194;16.394;2024-03-23T07:11:01;9.40;;;7.60;;
3991;SDS011;2010;48.194;16.394;2024-03-23T07:14:11;9.73;;;7.80;;
3991;SDS011;2010;48.194;16.394;2024-03-23T07:17:22;8.90;;;7.50;;
3991;SDS011;2010;48.194;16.394;2024-03-23T07:20:29;11.20;;;8.97;;
3991;SDS011;2010;48.194;16.394;2024-03-23T07:23:42;10.33;;;8.70;;
3991;SDS011;2010;48.194;16.394;2024-03-23T07:26:56;15.00;;;8.97;;
3991;SDS011;2010;48.194;16.394;2024-03-23T07:30:08;10.63;;;9.37;;
3991;SDS011;2010;48.194;16.394;2024-03-23T07:33:18;10.43;;;9.00;;
3991;SDS011;2010;48.194;16.394;2024-03-23T07:36:27;10.37;;;9.37;;
3991;SDS011;2010;48.194;16.394;2024-03-23T07:39:42;11.10;;;10.00;;
3991;SDS011;2010;48.194;16.394;2024-03-23T07:42:53;12.17;;;9.90;;
3991;SDS011;2010;48.194;16.394;2024-03-23T07:46:03;11.90;;;10.20;;
3991;SDS011;2010;48.194;16.394;2024-03-23T07:49:19;12.43;;;11.13;;
3991;SDS011;2010;48.194;16.394;2024-03-23T07:52:28;14.63;;;10.87;;
3991;SDS011;2010;48.194;16.394;2024-03-23T07:55:51;12.10;;;10.90;;
3991;SDS011;2010;48.194;16.394;2024-03-23T07:59:14;16.43;;;11.50;;
3991;SDS011;2010;48.194;16.394;2024-03-23T08:02:23;16.67;;;12.20;;
3991;SDS011;2010;48.194;16.394;2024-03-23T08:05:31;10.83;;;9.77;;
3991;SDS011;2010;48.194;16.394;2024-03-23T08:08:42;12.00;;;9.90;;
3991;SDS011;2010;48.194;16.394;2024-03-23T08:11:50;13.17;;;9.43;;
3991;SDS011;2010;48.194;16.394;2024-03-23T08:15:00;18.23;;;10.43;;
3991;SDS011;2010;48.194;16.394;2024-03-23T08:18:08;12.97;;;9.63;;
3991;SDS011;2010;48.194;16.394;2024-03-23T08:21:22;13.37;;;8.33;;
3991;SDS011;2010;48.194;16.394;2024-03-23T08:24:34;8.77;;;7.90;;
3991;SDS011;2010;48.194;16.394;2024-03-23T08:27:43;9.80;;;7.53;;
3991;SDS011;2010;48.194;16.394;2024-03-23T08:30:55;8.20;;;7.40;;
3991;SDS011;2010;48.194;16.394;2024-03-23T08:34:09;9.03;;;6.83;;
3991;SDS011;2010;48.194;16.394;2024-03-23T08:37:28;7.70;;;6.57;;
3991;SDS011;2010;48.194;16.394;2024-03-23T08:40:35;8.03;;;6.67;;
3991;SDS011;2010;48.194;16.394;2024-03-23T08:43:45;7.40;;;6.60;;
3991;SDS011;2010;48.194;16.394;2024-03-23T08:46:57;7.43;;;6.57;;
3991;SDS011;2010;48.194;16.394;2024-03-23T08:50:05;7.07;;;6.37;;
3991;SDS011;2010;48.194;16.394;2024-03-23T08:53:28;7.20;;;6.10;;
3991;SDS011;2010;48.194;16.394;2024-03-23T08:56:42;5.47;;;5.07;;
3991;SDS011;2010;48.194;16.394;2024-03-23T08:59:51;5.60;;;5.10;;
3991;SDS011;2010;48.194;16.394;2024-03-23T09:03:01;5.43;;;4.93;;
3991;SDS011;2010;48.194;16.394;2024-03-23T09:06:12;5.77;;;4.53;;
3991;SDS011;2010;48.194;16.394;2024-03-23T09:09:34;5.90;;;4.63;;
3991;SDS011;2010;48.194;16.394;2024-03-23T09:12:41;4.40;;;3.70;;
3991;SDS011;2010;48.194;16.394;2024-03-23T09:16:05;4.67;;;3.77;;
3991;SDS011;2010;48.194;16.394;2024-03-23T09:19:18;5.27;;;3.70;;
3991;SDS011;2010;48.194;16.394;2024-03-23T09:22:26;3.57;;;2.97;;
3991;SDS011;2010;48.194;16.394;2024-03-23T09:25:40;3.50;;;2.50;;
3991;SDS011;2010;48.194;16.394;2024-03-23T09:28:48;4.43;;;3.10;;
3991;SDS011;2010;48.194;16.394;2024-03-23T09:31:58;6.60;;;2.70;;
3991;SDS011;2010;48.194;16.394;2024-03-23T09:35:11;2.83;;;2.63;;
3991;SDS011;2010;48.194;16.394;2024-03-23T09:38:19;3.90;;;2.97;;
3991;SDS011;2010;48.194;16.394;2024-03-23T09:41:28;3.27;;;2.90;;
3991;SDS011;2010;48.194;16.394;2024-03-23T09:44:37;3.40;;;3.10;;
3991;SDS011;2010;48.194;16.394;2024-03-23T09:47:45;3.47;;;3.13;;
3991;SDS011;2010;48.194;16.394;2024-03-23T09:50:54;3.20;;;2.90;;
3991;SDS011;2010;48.194;16.394;2024-03-23T09:54:03;3.63;;;2.60;;
3991;SDS011;2010;48.194;16.394;2024-03-23T09:57:11;3.10;;;2.80;;
3991;SDS011;2010;48.194;16.394;2024-03-23T10:00:20;2.80;;;2.60;;
3991;SDS011;2010;48.194;16.394;2024-03-23T10:03:28;3.97;;;2.50;;
3991;SDS011;2010;48.194;16.394;2024-03-23T10:06:39;2.70;;;2.60;;
3991;SDS011;2010;48.194;16.394;2024-03-23T10:09:47;2.70;;;2.50;;
3991;SDS011;2010;48.194;16.394;2024-03-23T10:12:59;5.37;;;2.83;;
3991;SDS011;2010;48.194;16.394;2024-03-23T10:16:07;2.67;;;2.37;;
3991;SDS011;2010;48.194;16.394;2024-03-23T10:19:16;3.23;;;2.50;;
3991;SDS011;2010;48.194;16.394;2024-03-23T10:22:43;2.77;;;2.57;;
3991;SDS011;2010;48.194;16.394;2024-03-23T10:25:56;3.33;;;3.00;;
3991;SDS011;2010;48.194;16.394;2024-03-23T10:29:20;4.87;;;2.60;;
3991;SDS011;2010;48.194;16.394;2024-03-23T10:32:30;6.67;;;3.03;;
3991;SDS011;2010;48.194;16.394;2024-03-23T10:35:39;5.87;;;2.80;;
3991;SDS011;2010;48.194;16.394;2024-03-23T10:38:51;3.10;;;2.50;;
3991;SDS011;2010;48.194;16.394;2024-03-23T10:42:00;2.53;;;2.30;;
3991;SDS011;2010;48.194;16.394;2024-03-23T10:45:21;4.27;;;2.63;;
3991;SDS011;2010;48.194;16.394;2024-03-23T10:48:34;3.27;;;2.70;;
3991;SDS011;2010;48.194;16.394;2024-03-23T10:51:44;3.53;;;2.57;;
3991;SDS011;2010;48.194;16.394;2024-03-23T10:55:01;5.40;;;2.70;;
3991;SDS011;2010;48.194;16.394;2024-03-23T10:58:23;2.60;;;2.27;;
3991;SDS011;2010;48.194;16.394;2024-03-23T11:01:33;3.90;;;2.30;;
3991;SDS011;2010;48.194;16.394;2024-03-23T11:04:44;2.17;;;1.97;;
3991;SDS011;2010;48.194;16.394;2024-03-23T11:07:54;2.70;;;2.50;;
3991;SDS011;2010;48.194;16.394;2024-03-23T11:11:25;9.93;;;1.97;;
3991;SDS011;2010;48.194;16.394;2024-03-23T11:14:36;2.80;;;2.17;;
3991;SDS011;2010;48.194;16.394;2024-03-23T11:17:43;2.33;;;2.13;;
3991;SDS011;2010;48.194;16.394;2024-03-23T11:25:00;2.93;;;1.63;;
3991;SDS011;2010;48.194;16.394;2024-03-23T11:28:11;2.47;;;1.70;;
3991;SDS011;2010;48.194;16.394;2024-03-23T11:31:19;3.33;;;1.67;;
3991;SDS011;2010;48.194;16.394;2024-03-23T11:34:28;2.83;;;1.63;;
3991;SDS011;2010;48.194;16.394;2024-03-23T11:37:40;2.50;;;1.20;;
3991;SDS011;2010;48.194;16.394;2024-03-23T11:40:51;2.40;;;1.57;;
3991;SDS011;2010;48.194;16.394;2024-03-23T11:44:16;2.60;;;1.40;;
3991;SDS011;2010;48.194;16.394;2024-03-23T11:47:25;2.27;;;1.60;;
3991;SDS011;2010;48.194;16.394;2024-03-23T11:50:36;1.70;;;1.60;;
3991;SDS011;2010;48.194;16.394;2024-03-23T11:53:48;5.10;;;1.77;;
3991;SDS011;2010;48.194;16.394;2024-03-23T11:57:03;1.80;;;1.70;;
3991;SDS011;2010;48.194;16.394;2024-03-23T12:00:23;5.80;;;1.60;;
3991;SDS011;2010;48.194;16.394;2024-03-23T12:03:38;2.73;;;1.60;;
3991;SDS011;2010;48.194;16.394;2024-03-23T12:06:49;1.63;;;1.50;;
3991;SDS011;2010;48.194;16.394;2024-03-23T12:10:05;1.77;;;1.67;;
3991;SDS011;2010;48.194;16.394;2024-03-23T12:13:19;2.10;;;1.57;;
3991;SDS011;2010;48.194;16.394;2024-03-23T12:16:31;3.97;;;1.97;;
3991;SDS011;2010;48.194;16.394;2024-03-23T12:19:41;10.03;;;2.87;;
3991;SDS011;2010;48.194;16.394;2024-03-23T12:23:04;2.50;;;2.10;;
3991;SDS011;2010;48.194;16.394;2024-03-23T12:26:13;4.10;;;2.13;;
3991;SDS011;2010;48.194;16.394;2024-03-23T12:29:20;3.33;;;2.07;;
3991;SDS011;2010;48.194;16.394;2024-03-23T12:32:33;2.60;;;2.10;;
3991;SDS011;2010;48.194;16.394;2024-03-23T12:35:41;2.30;;;1.70;;
3991;SDS011;2010;48.194;16.394;2024-03-23T12:38:52;2.83;;;2.00;;
3991;SDS011;2010;48.194;16.394;2024-03-23T12:41:59;2.10;;;1.90;;
3991;SDS011;2010;48.194;16.394;2024-03-23T12:45:16;5.30;;;2.50;;
3991;SDS011;2010;48.194;16.394;2024-03-23T12:48:30;3.30;;;2.30;;
3991;SDS011;2010;48.194;16.394;2024-03-23T12:51:41;3.27;;;1.97;;
3991;SDS011;2010;48.194;16.394;2024-03-23T12:54:55;5.03;;;2.47;;
3991;SDS011;2010;48.194;16.394;2024-03-23T12:58:05;4.53;;;2.00;;
3991;SDS011;2010;48.194;16.394;2024-03-23T13:01:17;5.20;;;2.23;;
3991;SDS011;2010;48.194;16.394;2024-03-23T13:04:32;6.27;;;2.83;;
3991;SDS011;2010;48.194;16.394;2024-03-23T13:07:41;3.93;;;2.37;;
3991;SDS011;2010;48.194;16.394;2024-03-23T13:10:51;17.00;;;5.23;;
3991;SDS011;2010;48.194;16.394;2024-03-23T13:13:58;10.63;;;5.00;;
3991;SDS011;2010;48.194;16.394;2024-03-23T13:17:08;2.80;;;2.60;;
3991;SDS011;2010;48.194;16.394;2024-03-23T13:20:18;2.67;;;1.20;;
3991;SDS011;2010;48.194;16.394;2024-03-23T13:23:34;6.07;;;2.30;;
3991;SDS011;2010;48.194;16.394;2024-03-23T13:26:42;6.33;;;2.00;;
3991;SDS011;2010;48.194;16.394;2024-03-23T13:29:51;1.50;;;1.40;;
3991;SDS011;2010;48.194;16.394;2024-03-23T13:32:59;4.93;;;1.73;;
3991;SDS011;2010;48.194;16.394;2024-03-23T13:36:14;1.60;;;1.50;;
3991;SDS011;2010;48.194;16.394;2024-03-23T13:39:32;1.30;;;1.20;;
3991;SDS011;2010;48.194;16.394;2024-03-23T13:42:40;1.47;;;1.00;;
3991;SDS011;2010;48.194;16.394;2024-03-23T13:45:53;1.03;;;1.03;;
3991;SDS011;2010;48.194;16.394;2024-03-23T13:49:03;4.60;;;1.20;;
3991;SDS011;2010;48.194;16.394;2024-03-23T13:52:15;1.10;;;1.10;;
3991;SDS011;2010;48.194;16.394;2024-03-23T13:55:22;2.40;;;0.90;;
3991;SDS011;2010;48.194;16.394;2024-03-23T13:58:33;1.20;;;1.10;;
3991;SDS011;2010;48.194;16.394;2024-03-23T14:01:42;1.37;;;1.27;;
3991;SDS011;2010;48.194;16.394;2024-03-23T14:04:52;1.70;;;1.10;;
3991;SDS011;2010;48.194;16.394;2024-03-23T14:08:03;1.70;;;1.00;;
3991;SDS011;2010;48.194;16.394;2024-03-23T14:11:13;1.57;;;1.27;;
3991;SDS011;2010;48.194;16.394;2024-03-23T14:14:22;1.97;;;1.27;;
3991;SDS011;2010;48.194;16.394;2024-03-23T14:17:33;3.83;;;1.67;;
3991;SDS011;2010;48.194;16.394;2024-03-23T14:20:40;1.17;;;1.07;;
3991;SDS011;2010;48.194;16.394;2024-03-23T14:23:52;1.20;;;1.10;;
3991;SDS011;2010;48.194;16.394;2024-03-23T14:27:02;1.57;;;1.47;;
3991;SDS011;2010;48.194;16.394;2024-03-23T14:30:13;1.10;;;1.10;;
3991;SDS011;2010;48.194;16.394;2024-03-23T14:33:23;2.83;;;1.30;;
3991;SDS011;2010;48.194;16.394;2024-03-23T14:36:33;1.53;;;1.40;;
3991;SDS011;2010;48.194;16.394;2024-03-23T14:39:45;1.90;;;1.63;;
3991;SDS011;2010;48.194;16.394;2024-03-23T14:42:56;1.70;;;1.60;;
3991;SDS011;2010;48.194;16.394;2024-03-23T14:46:09;1.30;;;1.30;;
3991;SDS011;2010;48.194;16.394;2024-03-23T14:49:20;2.10;;;1.90;;
3991;SDS011;2010;48.194;16.394;2024-03-23T14:52:28;1.80;;;1.70;;
3991;SDS011;2010;48.194;16.394;2024-03-23T14:55:51;2.00;;;1.90;;
3991;SDS011;2010;48.194;16.394;2024-03-23T14:59:03;1.53;;;1.43;;
3991;SDS011;2010;48.194;16.394;2024-03-23T15:02:25;1.63;;;1.17;;
3991;SDS011;2010;48.194;16.394;2024-03-23T15:05:38;1.67;;;1.17;;
3991;SDS011;2010;48.194;16.394;2024-03-23T15:08:57;1.10;;;1.10;;
3991;SDS011;2010;48.194;16.394;2024-03-23T15:12:17;1.37;;;1.10;;
3991;SDS011;2010;48.194;16.394;2024-03-23T15:15:27;4.63;;;1.17;;
3991;SDS011;2010;48.194;16.394;2024-03-23T15:18:38;3.73;;;1.40;;
3991;SDS011;2010;48.194;16.394;2024-03-23T15:21:51;1.57;;;1.10;;
3991;SDS011;2010;48.194;16.394;2024-03-23T15:25:00;1.10;;;1.10;;
3991;SDS011;2010;48.194;16.394;2024-03-23T15:28:09;0.70;;;0.70;;
3991;SDS011;2010;48.194;16.394;2024-03-23T15:31:19;1.20;;;1.10;;
3991;SDS011;2010;48.194;16.394;2024-03-23T15:34:28;2.70;;;1.23;;
3991;SDS011;2010;48.194;16.394;2024-03-23T15:37:39;1.73;;;1.50;;
3991;SDS011;2010;48.194;16.394;2024-03-23T15:40:50;1.40;;;1.30;;
3991;SDS011;2010;48.194;16.394;2024-03-23T15:44:01;2.93;;;1.30;;
3991;SDS011;2010;48.194;16.394;2024-03-23T15:47:14;1.13;;;1.03;;
3991;SDS011;2010;48.194;16.394;2024-03-23T15:50:28;1.23;;;1.20;;
3991;SDS011;2010;48.194;16.394;2024-03-23T15:53:35;2.20;;;1.13;;
3991;SDS011;2010;48.194;16.394;2024-03-23T15:56:45;1.07;;;1.00;;
3991;SDS011;2010;48.194;16.394;2024-03-23T15:59:56;3.17;;;2.00;;
3991;SDS011;2010;48.194;16.394;2024-03-23T16:03:04;0.90;;;0.90;;
3991;SDS011;2010;48.194;16.394;2024-03-23T16:06:11;4.50;;;1.20;;
3991;SDS011;2010;48.194;16.394;2024-03-23T16:09:21;1.50;;;1.20;;
3991;SDS011;2010;48.194;16.394;2024-03-23T16:12:30;4.70;;;1.63;;
3991;SDS011;2010;48.194;16.394;2024-03-23T16:15:59;2.10;;;1.27;;
3991;SDS011;2010;48.194;16.394;2024-03-23T16:19:13;1.33;;;1.20;;
3991;SDS011;2010;48.194;16.394;2024-03-23T16:22:22;0.83;;;0.83;;
3991;SDS011;2010;48.194;16.394;2024-03-23T16:25:32;1.30;;;1.20;;
3991;SDS011;2010;48.194;16.394;2024-03-23T16:28:42;1.30;;;1.20;;
3991;SDS011;2010;48.194;16.394;2024-03-23T16:31:56;1.83;;;0.90;;
3991;SDS011;2010;48.194;16.394;2024-03-23T16:35:11;2.00;;;1.30;;
3991;SDS011;2010;48.194;16.394;2024-03-23T16:38:22;1.60;;;1.50;;
3991;SDS011;2010;48.194;16.394;2024-03-23T16:41:29;2.40;;;1.13;;
3991;SDS011;2010;48.194;16.394;2024-03-23T16:44:39;2.57;;;1.70;;
3991;SDS011;2010;48.194;16.394;2024-03-23T16:48:05;1.87;;;1.70;;
3991;SDS011;2010;48.194;16.394;2024-03-23T16:51:15;2.70;;;1.60;;
3991;SDS011;2010;48.194;16.394;2024-03-23T16:54:22;1.83;;;1.50;;
3991;SDS011;2010;48.194;16.394;2024-03-23T16:57:35;2.17;;;0.93;;
3991;SDS011;2010;48.194;16.394;2024-03-23T17:00:42;3.90;;;1.30;;
3991;SDS011;2010;48.194;16.394;2024-03-23T17:04:05;2.00;;;1.53;;
3991;SDS011;2010;48.194;16.394;2024-03-23T17:07:14;1.20;;;1.20;;
3991;SDS011;2010;48.194;16.394;2024-03-23T17:10:33;6.73;;;1.60;;
3991;SDS011;2010;48.194;16.394;2024-03-23T17:13:49;1.70;;;1.60;;
3991;SDS011;2010;48.194;16.394;2024-03-23T17:17:01;1.33;;;1.27;;
3991;SDS011;2010;48.194;16.394;2024-03-23T17:20:16;1.23;;;1.20;;
3991;SDS011;2010;48.194;16.394;2024-03-23T17:23:24;1.30;;;1.20;;
3991;SDS011;2010;48.194;16.394;2024-03-23T17:26:35;1.60;;;1.50;;
3991;SDS011;2010;48.194;16.394;2024-03-23T17:29:45;1.37;;;1.30;;
3991;SDS011;2010;48.194;16.394;2024-03-23T17:32:54;2.00;;;1.47;;
3991;SDS011;2010;48.194;16.394;2024-03-23T17:36:06;1.70;;;1.60;;
3991;SDS011;2010;48.194;16.394;2024-03-23T17:39:14;1.50;;;1.40;;
3991;SDS011;2010;48.194;16.394;2024-03-23T17:42:23;2.40;;;1.67;;
3991;SDS011;2010;48.194;16.394;2024-03-23T17:45:30;1.70;;;1.60;;
3991;SDS011;2010;48.194;16.394;2024-03-23T17:48:40;1.40;;;1.30;;
3991;SDS011;2010;48.194;16.394;2024-03-23T17:52:07;4.57;;;1.70;;
3991;SDS011;2010;48.194;16.394;2024-03-23T17:55:22;4.13;;;1.90;;
3991;SDS011;2010;48.194;16.394;2024-03-23T17:58:31;3.10;;;2.03;;
3991;SDS011;2010;48.194;16.394;2024-03-23T18:01:39;2.13;;;1.80;;
3991;SDS011;2010;48.194;16.394;2024-03-23T18:04:51;1.80;;;1.57;;
3991;SDS011;2010;48.194;16.394;2024-03-23T18:08:03;1.70;;;1.60;;
3991;SDS011;2010;48.194;16.394;2024-03-23T18:11:12;1.70;;;1.60;;
3991;SDS011;2010;48.194;16.394;2024-03-23T18:14:23;1.97;;;1.50;;
3991;SDS011;2010;48.194;16.394;2024-03-23T18:17:32;1.63;;;1.33;;
3991;SDS011;2010;48.194;16.394;2024-03-23T18:20:41;1.73;;;1.63;;
3991;SDS011;2010;48.194;16.394;2024-03-23T18:24:09;1.43;;;1.33;;
3991;SDS011;2010;48.194;16.394;2024-03-23T18:27:18;2.80;;;1.97;;
3991;SDS011;2010;48.194;16.394;2024-03-23T18:30:37;1.60;;;1.50;;
3991;SDS011;2010;48.194;16.394;2024-03-23T18:33:47;3.30;;;2.10;;
3991;SDS011;2010;48.194;16.394;2024-03-23T18:36:54;3.60;;;1.67;;
3991;SDS011;2010;48.194;16.394;2024-03-23T18:40:09;2.20;;;2.00;;
3991;SDS011;2010;48.194;16.394;2024-03-23T18:43:20;2.13;;;1.90;;
3991;SDS011;2010;48.194;16.394;2024-03-23T18:46:29;2.77;;;1.80;;
3991;SDS011;2010;48.194;16.394;2024-03-23T18:49:37;2.77;;;2.03;;
3991;SDS011;2010;48.194;16.394;2024-03-23T18:52:53;3.20;;;2.00;;
3991;SDS011;2010;48.194;16.394;2024-03-23T18:56:02;2.70;;;2.17;;
3991;SDS011;2010;48.194;16.394;2024-03-23T18:59:12;3.43;;;2.10;;
3991;SDS011;2010;48.194;16.394;2024-03-23T19:02:22;2.40;;;2.10;;
3991;SDS011;2010;48.194;16.394;2024-03-23T19:05:31;7.60;;;1.90;;
3991;SDS011;2010;48.194;16.394;2024-03-23T19:08:40;2.37;;;2.17;;
3991;SDS011;2010;48.194;16.394;2024-03-23T19:11:54;4.57;;;2.20;;
3991;SDS011;2010;48.194;16.394;2024-03-23T19:15:11;2.47;;;2.33;;
3991;SDS011;2010;48.194;16.394;2024-03-23T19:18:19;3.77;;;2.37;;
3991;SDS011;2010;48.194;16.394;2024-03-23T19:21:30;2.73;;;2.53;;
3991;SDS011;2010;48.194;16.394;2024-03-23T19:24:38;3.53;;;2.70;;
3991;SDS011;2010;48.194;16.394;2024-03-23T19:28:04;3.00;;;2.63;;
3991;SDS011;2010;48.194;16.394;2024-03-23T19:31:19;4.80;;;2.80;;
3991;SDS011;2010;48.194;16.394;2024-03-23T19:34:28;2.67;;;2.47;;
3991;SDS011;2010;48.194;16.394;2024-03-23T19:37:39;4.27;;;3.07;;
3991;SDS011;2010;48.194;16.394;2024-03-23T19:41:00;3.70;;;2.70;;
3991;SDS011;2010;48.194;16.394;2024-03-23T19:44:12;5.30;;;2.80;;
3991;SDS011;2010;48.194;16.394;2024-03-23T19:47:19;3.17;;;2.60;;
3991;SDS011;2010;48.194;16.394;2024-03-23T19:50:31;2.13;;;2.03;;
3991;SDS011;2010;48.194;16.394;2024-03-23T19:53:42;2.10;;;2.00;;
3991;SDS011;2010;48.194;16.394;2024-03-23T19:56:52;3.43;;;3.13;;
3991;SDS011;2010;48.194;16.394;2024-03-23T20:00:02;4.47;;;3.00;;
3991;SDS011;2010;48.194;16.394;2024-03-23T20:03:22;2.50;;;2.30;;
3991;SDS011;2010;48.194;16.394;2024-03-23T20:06:41;1.90;;;1.70;;
3991;SDS011;2010;48.194;16.394;2024-03-23T20:09:49;1.80;;;1.70;;
3991;SDS011;2010;48.194;16.394;2024-03-23T20:13:00;1.80;;;1.70;;
3991;SDS011;2010;48.194;16.394;2024-03-23T20:16:20;2.37;;;1.97;;
3991;SDS011;2010;48.194;16.394;2024-03-23T20:19:30;2.07;;;1.87;;
3991;SDS011;2010;48.194;16.394;2024-03-23T20:22:41;1.70;;;1.60;;
3991;SDS011;2010;48.194;16.394;2024-03-23T20:25:54;1.50;;;1.40;;